PRIVATE WETTERSTATION BILLIGHEIM-ALLFELD                       ZURCK
Wetterdaten: Samstag, 27.05.2017
Datum Zeit Temp. A. Temp. A. min Temp. A. max Feuchte A. Luftdruck Regen Wind Richtung Richtung Sonnenschein ET Solar Taupunkt Windchill Windben Empfang
27.05.2017 00:00 17,3 C 17,2 C 17,3 C 72 % 1018,4 hPa 0,0 l/m 0,0 km/h (0 Bft) O-NO 67 0 min 0,025 mm 0 W/m 12,2 C 17,3 C 3,2 km/h (1 Bft) 98 %
27.05.2017 00:10 17,2 C 17,2 C 17,3 C 72 % 1018,4 hPa 0,0 l/m 0,0 km/h (0 Bft) NO 45 0 min 0,000 mm 0 W/m 12,1 C 17,2 C 6,4 km/h (2 Bft) 97 %
27.05.2017 00:20 17,2 C 17,2 C 17,2 C 71 % 1018,3 hPa 0,0 l/m 0,0 km/h (0 Bft) N 360 0 min 0,000 mm 0 W/m 11,9 C 17,2 C 4,8 km/h (1 Bft) 97 %
27.05.2017 00:30 17,4 C 17,2 C 17,4 C 71 % 1018,2 hPa 0,0 l/m 1,6 km/h (1 Bft) O-SO 112 0 min 0,000 mm 0 W/m 12,1 C 17,4 C 12,9 km/h (3 Bft) 98 %
27.05.2017 00:40 17,6 C 17,4 C 17,6 C 71 % 1018,1 hPa 0,0 l/m 1,6 km/h (1 Bft) NO 45 0 min 0,000 mm 0 W/m 12,3 C 17,6 C 4,8 km/h (1 Bft) 97 %
27.05.2017 00:50 17,5 C 17,5 C 17,6 C 70 % 1018,1 hPa 0,0 l/m 1,6 km/h (1 Bft) O-NO 67 0 min 0,000 mm 0 W/m 12,0 C 17,5 C 9,7 km/h (2 Bft) 99 %
27.05.2017 01:00 17,6 C 17,4 C 17,6 C 69 % 1018,2 hPa 0,0 l/m 1,6 km/h (1 Bft) N-NO 22 0 min 0,025 mm 0 W/m 11,8 C 17,6 C 6,4 km/h (2 Bft) 100 %
27.05.2017 01:10 17,6 C 17,5 C 17,6 C 69 % 1018,3 hPa 0,0 l/m 0,0 km/h (0 Bft) O-SO 112 0 min 0,000 mm 0 W/m 11,8 C 17,6 C 6,4 km/h (2 Bft) 100 %
27.05.2017 01:20 17,6 C 17,6 C 17,6 C 69 % 1018,2 hPa 0,0 l/m 0,0 km/h (0 Bft) O-SO 112 0 min 0,000 mm 0 W/m 11,8 C 17,6 C 3,2 km/h (1 Bft) 100 %
27.05.2017 01:30 17,4 C 17,4 C 17,6 C 70 % 1018,2 hPa 0,0 l/m 0,0 km/h (0 Bft) O-NO 67 0 min 0,000 mm 0 W/m 11,9 C 17,4 C 4,8 km/h (1 Bft) 99 %
27.05.2017 01:40 17,1 C 17,1 C 17,4 C 72 % 1018,2 hPa 0,0 l/m 0,0 km/h (0 Bft) O 90 0 min 0,000 mm 0 W/m 12,0 C 17,1 C 4,8 km/h (1 Bft) 100 %
27.05.2017 01:50 16,6 C 16,6 C 17,1 C 73 % 1018,1 hPa 0,0 l/m 0,0 km/h (0 Bft) N 360 0 min 0,000 mm 0 W/m 11,7 C 16,6 C 6,4 km/h (2 Bft) 99 %
27.05.2017 02:00 16,3 C 16,3 C 16,6 C 75 % 1018,0 hPa 0,0 l/m 1,6 km/h (1 Bft) O-NO 67 0 min 0,025 mm 0 W/m 11,9 C 16,3 C 4,8 km/h (1 Bft) 100 %
27.05.2017 02:10 16,1 C 16,1 C 16,3 C 75 % 1018,2 hPa 0,0 l/m 0,0 km/h (0 Bft) N 360 0 min 0,000 mm 0 W/m 11,7 C 16,1 C 8,0 km/h (2 Bft) 100 %
27.05.2017 02:20 15,9 C 15,9 C 16,1 C 76 % 1018,1 hPa 0,0 l/m 1,6 km/h (1 Bft) NO 45 0 min 0,000 mm 0 W/m 11,7 C 15,9 C 4,8 km/h (1 Bft) 100 %
27.05.2017 02:30 15,8 C 15,8 C 15,9 C 76 % 1018,1 hPa 0,0 l/m 0,0 km/h (0 Bft) O-NO 67 0 min 0,000 mm 0 W/m 11,6 C 15,8 C 6,4 km/h (2 Bft) 100 %
27.05.2017 02:40 15,8 C 15,8 C 15,8 C 77 % 1018,0 hPa 0,0 l/m 0,0 km/h (0 Bft) O-NO 67 0 min 0,000 mm 0 W/m 11,8 C 15,8 C 6,4 km/h (2 Bft) 99 %
27.05.2017 02:50 15,7 C 15,7 C 15,8 C 77 % 1018,0 hPa 0,0 l/m 1,6 km/h (1 Bft) O 90 0 min 0,000 mm 0 W/m 11,7 C 15,7 C 8,0 km/h (2 Bft) 100 %
27.05.2017 03:00 15,6 C 15,6 C 15,7 C 77 % 1018,0 hPa 0,0 l/m 1,6 km/h (1 Bft) O-NO 67 0 min 0,025 mm 0 W/m 11,6 C 15,6 C 8,0 km/h (2 Bft) 99 %
27.05.2017 03:10 15,5 C 15,5 C 15,6 C 77 % 1018,0 hPa 0,0 l/m 1,6 km/h (1 Bft) O-NO 67 0 min 0,000 mm 0 W/m 11,5 C 15,5 C 11,3 km/h (2 Bft) 100 %
27.05.2017 03:20 15,4 C 15,4 C 15,5 C 77 % 1017,9 hPa 0,0 l/m 0,0 km/h (0 Bft) N-NO 22 0 min 0,000 mm 0 W/m 11,4 C 15,4 C 6,4 km/h (2 Bft) 100 %
27.05.2017 03:30 15,3 C 15,3 C 15,4 C 77 % 1017,9 hPa 0,0 l/m 1,6 km/h (1 Bft) O-NO 67 0 min 0,000 mm 0 W/m 11,3 C 15,3 C 16,1 km/h (3 Bft) 100 %
27.05.2017 03:40 15,3 C 15,3 C 15,3 C 77 % 1017,8 hPa 0,0 l/m 0,0 km/h (0 Bft) N-NO 22 0 min 0,000 mm 0 W/m 11,3 C 15,3 C 9,7 km/h (2 Bft) 100 %
27.05.2017 03:50 15,2 C 15,2 C 15,3 C 77 % 1017,9 hPa 0,0 l/m 1,6 km/h (1 Bft) N-NO 22 0 min 0,000 mm 0 W/m 11,2 C 15,2 C 14,5 km/h (3 Bft) 100 %
27.05.2017 04:00 15,1 C 15,1 C 15,2 C 77 % 1017,8 hPa 0,0 l/m 1,6 km/h (1 Bft) O-NO 67 0 min 0,025 mm 0 W/m 11,1 C 15,1 C 8,0 km/h (2 Bft) 100 %
27.05.2017 04:10 15,1 C 15,1 C 15,2 C 78 % 1017,8 hPa 0,0 l/m 1,6 km/h (1 Bft) N 360 0 min 0,000 mm 0 W/m 11,3 C 15,1 C 9,7 km/h (2 Bft) 100 %
27.05.2017 04:20 15,1 C 15,1 C 15,1 C 78 % 1017,7 hPa 0,0 l/m 1,6 km/h (1 Bft) N-NO 22 0 min 0,000 mm 0 W/m 11,3 C 15,1 C 4,8 km/h (1 Bft) 100 %
27.05.2017 04:30 14,8 C 14,8 C 15,1 C 79 % 1017,8 hPa 0,0 l/m 0,0 km/h (0 Bft) N-NO 22 0 min 0,000 mm 0 W/m 11,2 C 14,8 C 6,4 km/h (2 Bft) 100 %
27.05.2017 04:40 14,6 C 14,6 C 14,8 C 79 % 1018,0 hPa 0,0 l/m 0,0 km/h (0 Bft) N 0 0 min 0,000 mm 0 W/m 11,0 C 14,6 C 0,0 km/h (0 Bft) 100 %
27.05.2017 04:50 14,4 C 14,4 C 14,6 C 80 % 1018,0 hPa 0,0 l/m 0,0 km/h (0 Bft) O-NO 67 0 min 0,000 mm 0 W/m 11,0 C 14,4 C 1,6 km/h (1 Bft) 100 %
27.05.2017 05:00 14,1 C 14,1 C 14,4 C 81 % 1018,1 hPa 0,0 l/m 0,0 km/h (0 Bft) N 0 0 min 0,025 mm 0 W/m 10,9 C 14,1 C 0,0 km/h (0 Bft) 100 %
27.05.2017 05:10 13,7 C 13,7 C 14,0 C 82 % 1018,2 hPa 0,0 l/m 0,0 km/h (0 Bft) N 0 0 min 0,000 mm 0 W/m 10,7 C 13,7 C 0,0 km/h (0 Bft) 100 %
27.05.2017 05:20 13,3 C 13,3 C 13,7 C 84 % 1018,2 hPa 0,0 l/m 0,0 km/h (0 Bft) O-NO 67 0 min 0,000 mm 0 W/m 10,7 C 13,3 C 3,2 km/h (1 Bft) 100 %
27.05.2017 05:30 13,1 C 13,1 C 13,3 C 84 % 1018,2 hPa 0,0 l/m 1,6 km/h (1 Bft) N 360 0 min 0,000 mm 0 W/m 10,5 C 13,1 C 6,4 km/h (2 Bft) 100 %
27.05.2017 05:40 12,9 C 12,9 C 13,1 C 85 % 1018,3 hPa 0,0 l/m 1,6 km/h (1 Bft) N 360 0 min 0,000 mm 7 W/m 10,4 C 12,9 C 4,8 km/h (1 Bft) 100 %
27.05.2017 05:50 12,7 C 12,7 C 12,8 C 86 % 1018,4 hPa 0,0 l/m 0,0 km/h (0 Bft) N 0 0 min 0,000 mm 9 W/m 10,4 C 12,7 C 0,0 km/h (0 Bft) 100 %
27.05.2017 06:00 12,4 C 12,4 C 12,7 C 86 % 1018,5 hPa 0,0 l/m 1,6 km/h (1 Bft) N 360 0 min 0,000 mm 11 W/m 10,1 C 12,4 C 4,8 km/h (1 Bft) 100 %
27.05.2017 06:10 12,3 C 12,3 C 12,4 C 87 % 1018,6 hPa 0,0 l/m 0,0 km/h (0 Bft) N 0 0 min 0,000 mm 12 W/m 10,2 C 12,3 C 0,0 km/h (0 Bft) 100 %
27.05.2017 06:20 12,2 C 12,2 C 12,3 C 88 % 1018,7 hPa 0,0 l/m 0,0 km/h (0 Bft) N 360 0 min 0,000 mm 16 W/m 10,3 C 12,2 C 1,6 km/h (1 Bft) 100 %
27.05.2017 06:30 12,1 C 12,1 C 12,2 C 88 % 1018,6 hPa 0,0 l/m 1,6 km/h (1 Bft) N 360 0 min 0,000 mm 16 W/m 10,2 C 12,1 C 4,8 km/h (1 Bft) 100 %
27.05.2017 06:40 12,1 C 12,1 C 12,1 C 88 % 1018,6 hPa 0,0 l/m 0,0 km/h (0 Bft) N 360 0 min 0,000 mm 18 W/m 10,2 C 12,1 C 4,8 km/h (1 Bft) 100 %
27.05.2017 06:50 12,1 C 12,1 C 12,1 C 89 % 1018,7 hPa 0,0 l/m 1,6 km/h (1 Bft) N 360 0 min 0,000 mm 21 W/m 10,3 C 12,1 C 4,8 km/h (1 Bft) 100 %
27.05.2017 07:00 12,2 C 12,1 C 12,2 C 89 % 1018,9 hPa 0,0 l/m 0,0 km/h (0 Bft) N-NW 337 0 min 0,000 mm 21 W/m 10,4 C 12,2 C 4,8 km/h (1 Bft) 99 %
27.05.2017 07:10 12,3 C 12,2 C 12,3 C 89 % 1018,9 hPa 0,0 l/m 0,0 km/h (0 Bft) N 0 0 min 0,000 mm 23 W/m 10,5 C 12,3 C 0,0 km/h (0 Bft) 100 %
27.05.2017 07:20 12,5 C 12,3 C 12,5 C 90 % 1018,9 hPa 0,0 l/m 0,0 km/h (0 Bft) N-NW 337 0 min 0,000 mm 25 W/m 10,9 C 12,5 C 3,2 km/h (1 Bft) 100 %
27.05.2017 07:30 12,7 C 12,5 C 12,7 C 89 % 1018,9 hPa 0,0 l/m 0,0 km/h (0 Bft) N 0 0 min 0,000 mm 26 W/m 10,9 C 12,7 C 0,0 km/h (0 Bft) 100 %
27.05.2017 07:40 13,1 C 12,7 C 13,1 C 89 % 1018,9 hPa 0,0 l/m 0,0 km/h (0 Bft) N 0 0 min 0,000 mm 28 W/m 11,3 C 13,1 C 0,0 km/h (0 Bft) 100 %
27.05.2017 07:50 13,4 C 13,1 C 13,4 C 89 % 1019,0 hPa 0,0 l/m 0,0 km/h (0 Bft) N 0 0 min 0,000 mm 33 W/m 11,6 C 13,4 C 0,0 km/h (0 Bft) 100 %
27.05.2017 08:00 13,7 C 13,4 C 13,7 C 89 % 1019,0 hPa 0,0 l/m 0,0 km/h (0 Bft) N 0 0 min 0,025 mm 35 W/m 11,9 C 13,7 C 0,0 km/h (0 Bft) 100 %
27.05.2017 08:10 14,2 C 13,7 C 14,2 C 88 % 1019,1 hPa 0,0 l/m 0,0 km/h (0 Bft) N 0 0 min 0,000 mm 130 W/m 12,2 C 14,2 C 0,0 km/h (0 Bft) 100 %
27.05.2017 08:20 15,0 C 14,2 C 15,1 C 88 % 1019,1 hPa 0,0 l/m 0,0 km/h (0 Bft) N 0 10 min 0,000 mm 413 W/m 13,0 C 15,0 C 0,0 km/h (0 Bft) 100 %
27.05.2017 08:30 16,1 C 15,1 C 16,1 C 85 % 1019,1 hPa 0,0 l/m 0,0 km/h (0 Bft) N 0 10 min 0,000 mm 446 W/m 13,6 C 16,1 C 0,0 km/h (0 Bft) 100 %
27.05.2017 08:40 17,3 C 16,1 C 17,3 C 80 % 1019,2 hPa 0,0 l/m 0,0 km/h (0 Bft) N 0 10 min 0,000 mm 480 W/m 13,8 C 17,3 C 0,0 km/h (0 Bft) 100 %
27.05.2017 08:50 18,4 C 17,3 C 18,4 C 76 % 1019,2 hPa 0,0 l/m 0,0 km/h (0 Bft) N-NW 337 10 min 0,000 mm 506 W/m 14,1 C 18,4 C 1,6 km/h (1 Bft) 100 %
27.05.2017 09:00 19,3 C 18,5 C 19,3 C 73 % 1019,1 hPa 0,0 l/m 0,0 km/h (0 Bft) N 0 10 min 0,203 mm 538 W/m 14,3 C 19,3 C 0,0 km/h (0 Bft) 100 %
27.05.2017 09:10 20,1 C 19,3 C 20,1 C 76 % 1019,2 hPa 0,0 l/m 0,0 km/h (0 Bft) N 360 10 min 0,000 mm 568 W/m 15,7 C 20,1 C 1,6 km/h (1 Bft) 100 %
27.05.2017 09:20 20,7 C 20,1 C 20,7 C 68 % 1019,1 hPa 0,0 l/m 0,0 km/h (0 Bft) N 0 10 min 0,000 mm 594 W/m 14,6 C 20,7 C 0,0 km/h (0 Bft) 100 %
27.05.2017 09:30 21,2 C 20,7 C 21,2 C 67 % 1019,0 hPa 0,0 l/m 0,0 km/h (0 Bft) N 0 10 min 0,000 mm 621 W/m 14,8 C 21,2 C 0,0 km/h (0 Bft) 100 %
27.05.2017 09:40 21,4 C 21,2 C 21,4 C 65 % 1019,0 hPa 0,0 l/m 0,0 km/h (0 Bft) N-NO 22 10 min 0,000 mm 649 W/m 14,5 C 21,4 C 1,6 km/h (1 Bft) 100 %
27.05.2017 09:50 21,9 C 21,4 C 21,9 C 65 % 1018,9 hPa 0,0 l/m 0,0 km/h (0 Bft) N 0 10 min 0,000 mm 673 W/m 15,0 C 21,9 C 0,0 km/h (0 Bft) 100 %
27.05.2017 10:00 22,3 C 21,9 C 22,3 C 67 % 1019,0 hPa 0,0 l/m 0,0 km/h (0 Bft) N 0 10 min 0,356 mm 698 W/m 15,9 C 22,3 C 0,0 km/h (0 Bft) 100 %
27.05.2017 10:10 23,0 C 22,3 C 23,0 C 63 % 1019,0 hPa 0,0 l/m 0,0 km/h (0 Bft) N-NO 22 10 min 0,000 mm 719 W/m 15,6 C 23,0 C 1,6 km/h (1 Bft) 100 %
27.05.2017 10:20 23,3 C 23,0 C 23,3 C 61 % 1018,9 hPa 0,0 l/m 0,0 km/h (0 Bft) NO 45 10 min 0,000 mm 744 W/m 15,3 C 23,3 C 1,6 km/h (1 Bft) 100 %
27.05.2017 10:30 23,8 C 23,3 C 23,8 C 56 % 1018,9 hPa 0,0 l/m 0,0 km/h (0 Bft) O 90 10 min 0,000 mm 766 W/m 14,5 C 23,8 C 8,0 km/h (2 Bft) 100 %
27.05.2017 10:40 24,5 C 23,8 C 24,5 C 62 % 1018,9 hPa 0,0 l/m 0,0 km/h (0 Bft) SO 135 10 min 0,000 mm 788 W/m 16,7 C 24,5 C 6,4 km/h (2 Bft) 100 %
27.05.2017 10:50 24,8 C 24,5 C 24,8 C 57 % 1018,7 hPa 0,0 l/m 0,0 km/h (0 Bft) O-SO 112 10 min 0,000 mm 807 W/m 15,7 C 24,8 C 6,4 km/h (2 Bft) 100 %
27.05.2017 11:00 25,1 C 24,8 C 25,1 C 58 % 1018,8 hPa 0,0 l/m 1,6 km/h (1 Bft) O-SO 112 10 min 0,483 mm 824 W/m 16,2 C 25,1 C 11,3 km/h (2 Bft) 100 %
27.05.2017 11:10 25,2 C 25,1 C 25,2 C 56 % 1018,8 hPa 0,0 l/m 3,2 km/h (1 Bft) O-SO 112 10 min 0,000 mm 846 W/m 15,8 C 25,2 C 19,3 km/h (3 Bft) 100 %
27.05.2017 11:20 25,4 C 25,2 C 25,4 C 58 % 1018,7 hPa 0,0 l/m 1,6 km/h (1 Bft) O-SO 112 10 min 0,000 mm 860 W/m 16,5 C 25,4 C 9,7 km/h (2 Bft) 100 %
27.05.2017 11:30 25,6 C 25,4 C 25,6 C 54 % 1018,6 hPa 0,0 l/m 1,6 km/h (1 Bft) O-NO 67 10 min 0,000 mm 874 W/m 15,6 C 25,6 C 9,7 km/h (2 Bft) 100 %
27.05.2017 11:40 25,9 C 25,6 C 25,9 C 54 % 1018,6 hPa 0,0 l/m 1,6 km/h (1 Bft) O-SO 112 10 min 0,000 mm 886 W/m 15,9 C 25,9 C 11,3 km/h (2 Bft) 100 %
27.05.2017 11:50 26,0 C 25,9 C 26,0 C 51 % 1018,6 hPa 0,0 l/m 1,6 km/h (1 Bft) SO 135 10 min 0,000 mm 902 W/m 15,1 C 26,0 C 11,3 km/h (2 Bft) 100 %
27.05.2017 12:00 26,3 C 26,0 C 26,3 C 51 % 1018,6 hPa 0,0 l/m 1,6 km/h (1 Bft) O-SO 112 10 min 0,559 mm 916 W/m 15,3 C 26,3 C 8,0 km/h (2 Bft) 100 %
27.05.2017 12:10 26,4 C 26,0 C 26,4 C 48 % 1018,5 hPa 0,0 l/m 8,4 km/h (2 Bft) SO 142 10 min 0,000 mm 923 W/m 14,5 C 26,0 C 14,5 km/h (3 Bft) 100 %
27.05.2017 12:20 26,4 C 26,3 C 26,4 C 56 % 1018,4 hPa 0,0 l/m 4,5 km/h (1 Bft) W-NW 290 10 min 0,000 mm 932 W/m 16,9 C 26,4 C 9,7 km/h (2 Bft) 98 %
27.05.2017 12:30 26,6 C 26,4 C 26,6 C 52 % 1018,4 hPa 0,0 l/m 3,0 km/h (1 Bft) O-SO 107 10 min 0,000 mm 935 W/m 15,9 C 26,6 C 19,3 km/h (3 Bft) 99 %
27.05.2017 12:40 26,7 C 26,6 C 26,7 C 47 % 1018,5 hPa 0,0 l/m 4,0 km/h (1 Bft) SO 130 10 min 0,000 mm 940 W/m 14,4 C 26,7 C 16,1 km/h (3 Bft) 100 %
27.05.2017 12:50 26,4 C 26,4 C 26,7 C 49 % 1018,4 hPa 0,0 l/m 4,0 km/h (1 Bft) SO 138 10 min 0,000 mm 942 W/m 14,8 C 26,4 C 17,7 km/h (3 Bft) 100 %
27.05.2017 13:00 26,3 C 26,3 C 26,4 C 49 % 1018,4 hPa 0,0 l/m 3,6 km/h (1 Bft) S-SO 154 10 min 0,612 mm 951 W/m 14,7 C 26,3 C 16,1 km/h (3 Bft) 100 %
27.05.2017 13:10 26,5 C 26,3 C 26,5 C 46 % 1018,2 hPa 0,0 l/m 0,9 km/h (0 Bft) NO 51 10 min 0,000 mm 949 W/m 13,9 C 26,5 C 9,7 km/h (2 Bft) 100 %
27.05.2017 13:20 26,5 C 26,5 C 26,6 C 46 % 1018,2 hPa 0,0 l/m 3,9 km/h (1 Bft) O-SO 118 10 min 0,000 mm 942 W/m 13,9 C 26,5 C 20,9 km/h (4 Bft) 100 %
27.05.2017 13:30 26,7 C 26,5 C 26,7 C 48 % 1017,9 hPa 0,0 l/m 2,1 km/h (1 Bft) N-NO 30 10 min 0,000 mm 944 W/m 14,8 C 26,7 C 14,5 km/h (3 Bft) 100 %
27.05.2017 13:40 26,7 C 26,6 C 26,8 C 47 % 1017,9 hPa 0,0 l/m 3,2 km/h (1 Bft) N-NO 29 10 min 0,000 mm 940 W/m 14,4 C 26,7 C 16,1 km/h (3 Bft) 99 %
27.05.2017 13:50 26,6 C 26,5 C 26,7 C 49 % 1017,9 hPa 0,0 l/m 3,1 km/h (1 Bft) O-SO 119 10 min 0,000 mm 935 W/m 15,0 C 26,6 C 14,5 km/h (3 Bft) 100 %
27.05.2017 14:00 26,9 C 26,6 C 26,9 C 48 % 1017,8 hPa 0,0 l/m 1,0 km/h (0 Bft) O-SO 113 10 min 0,609 mm 926 W/m 14,9 C 26,9 C 8,0 km/h (2 Bft) 100 %
27.05.2017 14:10 27,0 C 26,9 C 27,0 C 49 % 1017,5 hPa 0,0 l/m 3,8 km/h (1 Bft) O-SO 110 10 min 0,000 mm 921 W/m 15,4 C 27,0 C 16,1 km/h (3 Bft) 100 %
27.05.2017 14:20 27,2 C 27,0 C 27,2 C 48 % 1017,6 hPa 0,0 l/m 2,9 km/h (1 Bft) O 100 10 min 0,000 mm 916 W/m 15,2 C 27,2 C 19,3 km/h (3 Bft) 100 %
27.05.2017 14:30 27,4 C 27,2 C 27,4 C 50 % 1017,3 hPa 0,0 l/m 0,9 km/h (0 Bft) N-NO 17 10 min 0,000 mm 907 W/m 16,0 C 27,4 C 9,7 km/h (2 Bft) 100 %
27.05.2017 14:40 27,6 C 27,4 C 27,6 C 48 % 1017,4 hPa 0,0 l/m 3,7 km/h (1 Bft) O-SO 123 10 min 0,000 mm 898 W/m 15,6 C 27,6 C 14,5 km/h (3 Bft) 100 %
27.05.2017 14:50 27,6 C 27,6 C 27,6 C 48 % 1017,3 hPa 0,0 l/m 1,7 km/h (1 Bft) O-SO 110 10 min 0,000 mm 418 W/m 15,6 C 27,6 C 14,5 km/h (3 Bft) 100 %
27.05.2017 15:00 27,7 C 27,6 C 27,7 C 49 % 1017,3 hPa 0,0 l/m 0,8 km/h (0 Bft) SO 136 10 min 0,584 mm 870 W/m 16,0 C 27,7 C 9,7 km/h (2 Bft) 100 %
27.05.2017 15:10 27,7 C 27,7 C 27,7 C 50 % 1017,4 hPa 0,0 l/m 0,8 km/h (0 Bft) N-NO 12 10 min 0,000 mm 733 W/m 16,3 C 27,7 C 11,3 km/h (2 Bft) 100 %
27.05.2017 15:20 27,8 C 27,7 C 27,8 C 48 % 1017,1 hPa 0,0 l/m 1,9 km/h (1 Bft) O-SO 108 0 min 0,000 mm 86 W/m 15,8 C 27,8 C 16,1 km/h (3 Bft) 100 %
27.05.2017 15:30 27,7 C 27,7 C 27,8 C 50 % 1017,0 hPa 0,0 l/m 1,4 km/h (1 Bft) W 281 0 min 0,000 mm 81 W/m 16,3 C 27,7 C 11,3 km/h (2 Bft) 100 %
27.05.2017 15:40 27,7 C 27,6 C 27,7 C 49 % 1017,0 hPa 0,0 l/m 1,1 km/h (1 Bft) O-SO 113 0 min 0,000 mm 72 W/m 16,0 C 27,7 C 14,5 km/h (3 Bft) 100 %
27.05.2017 15:50 27,8 C 27,7 C 27,8 C 51 % 1016,9 hPa 0,0 l/m 0,2 km/h (0 Bft) O 100 10 min 0,000 mm 712 W/m 16,7 C 27,8 C 6,4 km/h (2 Bft) 100 %
27.05.2017 16:00 27,7 C 27,7 C 27,8 C 45 % 1016,9 hPa 0,0 l/m 1,3 km/h (1 Bft) S-SO 159 10 min 0,229 mm 469 W/m 14,7 C 27,7 C 9,7 km/h (2 Bft) 100 %
27.05.2017 16:10 27,7 C 27,6 C 27,7 C 50 % 1016,8 hPa 0,0 l/m 1,6 km/h (1 Bft) O 90 10 min 0,000 mm 742 W/m 16,3 C 27,7 C 9,7 km/h (2 Bft) 100 %
27.05.2017 16:20 27,7 C 27,7 C 27,7 C 49 % 1016,9 hPa 0,0 l/m 0,0 km/h (0 Bft) O 82 10 min 0,000 mm 504 W/m 16,0 C 27,7 C 1,6 km/h (1 Bft) 100 %
27.05.2017 16:30 27,9 C 27,7 C 27,9 C 49 % 1016,9 hPa 0,0 l/m 1,0 km/h (0 Bft) N-NO 28 10 min 0,000 mm 267 W/m 16,2 C 27,9 C 9,7 km/h (2 Bft) 100 %
27.05.2017 16:40 27,9 C 27,9 C 27,9 C 49 % 1016,8 hPa 0,0 l/m 0,1 km/h (0 Bft) O-SO 111 0 min 0,000 mm 83 W/m 16,2 C 27,9 C 4,8 km/h (1 Bft) 100 %
27.05.2017 16:50 28,0 C 27,9 C 28,0 C 47 % 1016,9 hPa 0,0 l/m 1,1 km/h (1 Bft) SO 140 0 min 0,000 mm 63 W/m 15,6 C 28,0 C 9,7 km/h (2 Bft) 100 %
27.05.2017 17:00 27,9 C 27,9 C 28,0 C 49 % 1016,8 hPa 0,0 l/m 1,0 km/h (0 Bft) O 82 0 min 0,229 mm 62 W/m 16,2 C 27,9 C 14,5 km/h (3 Bft) 100 %
27.05.2017 17:10 27,9 C 27,9 C 27,9 C 48 % 1016,6 hPa 0,0 l/m 0,6 km/h (0 Bft) SO 142 0 min 0,000 mm 60 W/m 15,9 C 27,9 C 6,4 km/h (2 Bft) 100 %
27.05.2017 17:20 27,8 C 27,8 C 27,9 C 50 % 1016,6 hPa 0,0 l/m 0,2 km/h (0 Bft) S-SO 149 0 min 0,000 mm 60 W/m 16,4 C 27,8 C 6,4 km/h (2 Bft) 100 %
27.05.2017 17:30 27,7 C 27,7 C 27,8 C 47 % 1016,6 hPa 0,0 l/m 0,8 km/h (0 Bft) N 5 0 min 0,000 mm 58 W/m 15,3 C 27,7 C 11,3 km/h (2 Bft) 100 %
27.05.2017 17:40 27,6 C 27,6 C 27,7 C 48 % 1016,5 hPa 0,0 l/m 0,0 km/h (0 Bft) O 92 0 min 0,000 mm 56 W/m 15,6 C 27,6 C 1,6 km/h (1 Bft) 100 %
27.05.2017 17:50 27,4 C 27,4 C 27,6 C 49 % 1016,4 hPa 0,0 l/m 0,6 km/h (0 Bft) SO 134 0 min 0,000 mm 54 W/m 15,7 C 27,4 C 12,9 km/h (3 Bft) 100 %
27.05.2017 18:00 27,4 C 27,4 C 27,5 C 48 % 1016,4 hPa 0,0 l/m 0,2 km/h (0 Bft) O-SO 108 0 min 0,050 mm 53 W/m 15,4 C 27,4 C 8,0 km/h (2 Bft) 100 %
27.05.2017 18:10 27,3 C 27,3 C 27,4 C 48 % 1016,5 hPa 0,0 l/m 1,3 km/h (1 Bft) O-SO 109 0 min 0,000 mm 51 W/m 15,3 C 27,3 C 8,0 km/h (2 Bft) 100 %
27.05.2017 18:20 27,3 C 27,3 C 27,3 C 48 % 1016,4 hPa 0,0 l/m 0,8 km/h (0 Bft) O 84 0 min 0,000 mm 49 W/m 15,3 C 27,3 C 8,0 km/h (2 Bft) 99 %
27.05.2017 18:30 27,3 C 27,3 C 27,3 C 50 % 1016,4 hPa 0,0 l/m 0,2 km/h (0 Bft) O-NO 75 0 min 0,000 mm 47 W/m 15,9 C 27,3 C 6,4 km/h (2 Bft) 99 %
27.05.2017 18:40 27,1 C 27,1 C 27,3 C 48 % 1016,3 hPa 0,0 l/m 0,4 km/h (0 Bft) O-SO 105 0 min 0,000 mm 46 W/m 15,1 C 27,1 C 6,4 km/h (2 Bft) 99 %
27.05.2017 18:50 26,9 C 26,9 C 27,1 C 49 % 1016,3 hPa 0,0 l/m 0,3 km/h (0 Bft) O-SO 116 0 min 0,000 mm 44 W/m 15,3 C 26,9 C 8,0 km/h (2 Bft) 99 %
27.05.2017 19:00 26,7 C 26,7 C 26,9 C 49 % 1016,3 hPa 0,0 l/m 0,2 km/h (0 Bft) NO 44 0 min 0,051 mm 44 W/m 15,1 C 26,7 C 6,4 km/h (2 Bft) 98 %
27.05.2017 19:10 26,4 C 26,4 C 26,7 C 49 % 1016,2 hPa 0,0 l/m 0,4 km/h (0 Bft) O-SO 109 0 min 0,000 mm 40 W/m 14,8 C 26,4 C 8,0 km/h (2 Bft) 98 %
27.05.2017 19:20 26,1 C 26,1 C 26,4 C 49 % 1016,3 hPa 0,0 l/m 0,4 km/h (0 Bft) O 84 0 min 0,000 mm 40 W/m 14,5 C 26,1 C 11,3 km/h (2 Bft) 98 %
27.05.2017 19:30 25,9 C 25,9 C 26,1 C 49 % 1016,2 hPa 0,0 l/m 1,0 km/h (0 Bft) N-NO 28 0 min 0,000 mm 37 W/m 14,4 C 25,9 C 8,0 km/h (2 Bft) 99 %
27.05.2017 19:40 25,7 C 25,7 C 25,9 C 49 % 1016,2 hPa 0,0 l/m 0,3 km/h (0 Bft) O-SO 120 0 min 0,000 mm 33 W/m 14,2 C 25,7 C 6,4 km/h (2 Bft) 97 %
27.05.2017 19:50 25,4 C 25,4 C 25,7 C 50 % 1016,2 hPa 0,0 l/m 0,0 km/h (0 Bft) SO 129 0 min 0,000 mm 30 W/m 14,2 C 25,4 C 1,6 km/h (1 Bft) 98 %
27.05.2017 20:00 25,2 C 25,2 C 25,4 C 52 % 1016,3 hPa 0,0 l/m 0,1 km/h (0 Bft) O-SO 105 0 min 0,051 mm 28 W/m 14,6 C 25,2 C 4,8 km/h (1 Bft) 98 %
27.05.2017 20:10 24,9 C 24,9 C 25,2 C 52 % 1016,3 hPa 0,0 l/m 0,0 km/h (0 Bft) O-SO 106 0 min 0,000 mm 25 W/m 14,4 C 24,9 C 0,0 km/h (0 Bft) 98 %
27.05.2017 20:20 24,6 C 24,6 C 24,9 C 53 % 1016,3 hPa 0,0 l/m 0,0 km/h (0 Bft) O-SO 102 0 min 0,000 mm 21 W/m 14,4 C 24,6 C 1,6 km/h (1 Bft) 98 %
27.05.2017 20:30 24,3 C 24,3 C 24,6 C 55 % 1016,4 hPa 0,0 l/m 0,0 km/h (0 Bft) O-SO 102 0 min 0,000 mm 19 W/m 14,7 C 24,3 C 1,6 km/h (1 Bft) 98 %
27.05.2017 20:40 24,0 C 24,0 C 24,3 C 55 % 1016,5 hPa 0,0 l/m 0,0 km/h (0 Bft) O 101 0 min 0,000 mm 16 W/m 14,4 C 24,0 C 0,0 km/h (0 Bft) 99 %
27.05.2017 20:50 23,7 C 23,7 C 24,0 C 56 % 1016,6 hPa 0,0 l/m 0,0 km/h (0 Bft) O 98 0 min 0,000 mm 12 W/m 14,4 C 23,7 C 1,6 km/h (1 Bft) 99 %
27.05.2017 21:00 23,5 C 23,5 C 23,7 C 56 % 1016,8 hPa 0,0 l/m 0,2 km/h (0 Bft) O-SO 107 0 min 0,025 mm 9 W/m 14,2 C 23,5 C 6,4 km/h (2 Bft) 99 %
27.05.2017 21:10 23,2 C 23,2 C 23,4 C 56 % 1016,8 hPa 0,0 l/m 0,0 km/h (0 Bft) O-SO 112 0 min 0,000 mm 9 W/m 13,9 C 23,2 C 1,6 km/h (1 Bft) 100 %
27.05.2017 21:20 22,9 C 22,9 C 23,2 C 55 % 1016,8 hPa 0,0 l/m 0,0 km/h (0 Bft) N 0 0 min 0,000 mm 0 W/m 13,4 C 22,9 C 0,0 km/h (0 Bft) 100 %
27.05.2017 21:30 22,6 C 22,6 C 22,9 C 55 % 1017,0 hPa 0,0 l/m 0,0 km/h (0 Bft) O 90 0 min 0,000 mm 0 W/m 13,1 C 22,6 C 4,8 km/h (1 Bft) 100 %
27.05.2017 21:40 22,4 C 22,4 C 22,6 C 55 % 1017,0 hPa 0,0 l/m 0,0 km/h (0 Bft) N 0 0 min 0,000 mm 0 W/m 12,9 C 22,4 C 0,0 km/h (0 Bft) 100 %
27.05.2017 21:50 22,2 C 22,2 C 22,4 C 56 % 1017,1 hPa 0,0 l/m 1,6 km/h (1 Bft) O-SO 112 0 min 0,000 mm 0 W/m 13,0 C 22,2 C 8,0 km/h (2 Bft) 100 %
27.05.2017 22:00 21,9 C 21,9 C 22,2 C 57 % 1017,4 hPa 0,0 l/m 0,0 km/h (0 Bft) O 90 0 min 0,025 mm 0 W/m 13,0 C 21,9 C 4,8 km/h (1 Bft) 100 %
27.05.2017 22:10 21,7 C 21,7 C 21,9 C 61 % 1017,5 hPa 0,0 l/m 0,0 km/h (0 Bft) O-SO 112 0 min 0,000 mm 0 W/m 13,8 C 21,7 C 6,4 km/h (2 Bft) 100 %
27.05.2017 22:20 20,9 C 20,9 C 21,7 C 65 % 1017,5 hPa 0,0 l/m 0,0 km/h (0 Bft) O-SO 112 0 min 0,000 mm 0 W/m 14,1 C 20,9 C 1,6 km/h (1 Bft) 100 %
27.05.2017 22:30 20,0 C 20,0 C 20,9 C 68 % 1017,5 hPa 0,0 l/m 0,0 km/h (0 Bft) O-SO 112 0 min 0,000 mm 0 W/m 13,9 C 20,0 C 1,6 km/h (1 Bft) 100 %
27.05.2017 22:40 19,3 C 19,3 C 19,9 C 72 % 1017,6 hPa 0,0 l/m 0,0 km/h (0 Bft) O-SO 112 0 min 0,000 mm 0 W/m 14,1 C 19,3 C 4,8 km/h (1 Bft) 100 %
27.05.2017 22:50 18,8 C 18,8 C 19,3 C 73 % 1017,6 hPa 0,0 l/m 0,0 km/h (0 Bft) N 0 0 min 0,000 mm 0 W/m 13,9 C 18,8 C 0,0 km/h (0 Bft) 100 %
27.05.2017 23:00 18,3 C 18,3 C 18,8 C 75 % 1017,6 hPa 0,0 l/m 0,0 km/h (0 Bft) O-SO 112 0 min 0,025 mm 0 W/m 13,8 C 18,3 C 1,6 km/h (1 Bft) 100 %
27.05.2017 23:10 17,8 C 17,8 C 18,3 C 77 % 1017,7 hPa 0,0 l/m 0,0 km/h (0 Bft) NO 45 0 min 0,000 mm 0 W/m 13,7 C 17,8 C 3,2 km/h (1 Bft) 100 %
27.05.2017 23:20 17,5 C 17,4 C 17,8 C 78 % 1017,8 hPa 0,0 l/m 0,0 km/h (0 Bft) NO 45 0 min 0,000 mm 0 W/m 13,6 C 17,5 C 1,6 km/h (1 Bft) 100 %
27.05.2017 23:30 17,1 C 17,1 C 17,4 C 80 % 1017,9 hPa 0,0 l/m 1,6 km/h (1 Bft) N 360 0 min 0,000 mm 0 W/m 13,6 C 17,1 C 4,8 km/h (1 Bft) 100 %
27.05.2017 23:40 16,8 C 16,8 C 17,1 C 80 % 1017,8 hPa 0,0 l/m 1,6 km/h (1 Bft) N 360 0 min 0,000 mm 0 W/m 13,3 C 16,8 C 4,8 km/h (1 Bft) 100 %
27.05.2017 23:50 16,6 C 16,6 C 16,8 C 81 % 1017,8 hPa 0,0 l/m 0,0 km/h (0 Bft) N 360 0 min 0,000 mm 0 W/m 13,3 C 16,6 C 1,6 km/h (1 Bft) 100 %
_ Min-Zeit 06:30 06:30 06:40 16:00 19:10 - 00:00 - - - - - 06:00 06:30 04:40 00:10
Minimum _ 12,1 C 12,1 C 12,1 C 45 % 1016,2 hPa - 0,0 km/h (0 Bft) - - - - - 10,1 C 12,1 C 0,0 km/h (0 Bft) 97 %
_ Max-Zeit 16:50 16:40 16:50 07:20 08:40 00:00 12:10 - - 08:20 13:00 13:00 12:20 16:50 13:20 01:00
Maximum _ 28,0 C 27,9 C 28,0 C 90 % 1019,2 hPa 0,0 l/m 8,4 km/h
SO (2 Bft)
- - 10 min 0,612 mm 951 W/m 16,9 C 28,0 C 20,9 km/h
SO (4 Bft)
100 %
Durchschnitt _ 21,1 C 21,0 C 21,2 C 64 % 1017,8 hPa #0,0 l/m 0,9 km/h (0 Bft) O-SO - #7:50 h #4,266 mm 400 W/m 13,6 C 21,1 C 6,5 km/h (2 Bft) 100 %
PRIVATE WETTERSTATION BILLIGHEIM-ALLFELD - www.neckar-odenwald-wetter.de - Holger Sonntag